Neorion — 2HA12 — position and weather

sailwx.info

Track history (hours):
 
Tides and Currents Weather Stations Pressure Air Temp Water Temp Dewpoint Dewpoint Depression Visibility Wind Speed Wind Dir Waves Ship Positions

Neorion

Last reported at 2018-Mar-31 23:53 UTC. Time now 2018-Jun-20 19:19 UTC.
Position N 09°16' W 079°55'.
Warning: this ship's position is months out of date.

Length 28 m.

Type: Sailing vessel. MMSI: 235102003.

Date/timePositionNaut miles runAvg speedWind from/ knotsBaromVisibWave heightAir tempDewpointWater temp
2018-Mar-31 23:53N 09°16' W 079°55'1 1.0
2018-Mar-31 22:45N 09°17' W 079°55'0 0.2
2018-Mar-31 22:04N 09°17' W 079°55'0 1.2
2018-Mar-31 21:58N 09°17' W 079°55'1 2.6
2018-Mar-31 21:28N 09°18' W 079°55'2 4.9
2018-Mar-31 20:58N 09°21' W 079°55'0 0.1
2018-Mar-31 20:30N 09°21' W 079°55'3 5.1
2018-Mar-31 19:59N 09°22' W 079°57'0 0.3
2018-Mar-31 19:26N 09°22' W 079°57'0 0.0
2018-Mar-31 18:59N 09°22' W 079°57'0 0.0
2018-Mar-31 18:29N 09°22' W 079°57'0 0.0
2018-Mar-31 17:59N 09°22' W 079°57'0 0.0
2018-Mar-31 17:29N 09°22' W 079°57'0 0.0
2018-Mar-31 16:56N 09°22' W 079°57'0 0.0
2018-Mar-31 16:29N 09°22' W 079°57'0 0.0
2018-Mar-31 15:59N 09°22' W 079°57'0 0.0
2018-Mar-31 15:29N 09°22' W 079°57'0 0.0
2018-Mar-31 14:59N 09°22' W 079°57'0 0.0
2018-Mar-31 14:29N 09°22' W 079°57'0 0.0
2018-Mar-31 13:59N 09°22' W 079°57'0 0.0
2018-Mar-31 13:29N 09°22' W 079°57'0 0.0
2018-Mar-31 12:59N 09°22' W 079°57'0 0.0
2018-Mar-31 12:27N 09°22' W 079°57'0 0.0
2018-Mar-31 11:59N 09°22' W 079°57'0 0.0
2018-Mar-31 11:26N 09°22' W 079°57'0 0.0
2018-Mar-31 10:59N 09°22' W 079°57'0 0.0
2018-Mar-31 10:29N 09°22' W 079°57'0 0.0
2018-Mar-31 09:59N 09°22' W 079°57'0 0.0
2018-Mar-31 09:26N 09°22' W 079°57'0 0.0
2018-Mar-31 08:59N 09°22' W 079°57'0 0.0
2018-Mar-31 08:29N 09°22' W 079°57'0 0.0
2018-Mar-31 07:59N 09°22' W 079°57'0 0.0
2018-Mar-31 07:30N 09°22' W 079°57'0 0.0
2018-Mar-31 07:00N 09°22' W 079°57'0 0.0
2018-Mar-31 06:29N 09°22' W 079°57'0 0.0
2018-Mar-31 05:56N 09°22' W 079°57'0 0.0
2018-Mar-31 05:26N 09°22' W 079°57'0 0.0
2018-Mar-31 04:56N 09°22' W 079°57'0 0.0
2018-Mar-31 04:29N 09°22' W 079°57'0 0.0
2018-Mar-31 03:59N 09°22' W 079°57'0 0.0
2018-Mar-31 03:29N 09°22' W 079°57'0 0.0
2018-Mar-31 02:59N 09°22' W 079°57'0 0.0
2018-Mar-31 02:29N 09°22' W 079°57'0 0.0
2018-Mar-31 01:59N 09°22' W 079°57'0 0.0
2018-Mar-31 00:05N 09°22' W 079°57'0 0.0
2018-Mar-30 23:59N 09°22' W 079°57'0 0.0
2018-Mar-30 23:29N 09°22' W 079°57'0 0.0
2018-Mar-30 22:56N 09°22' W 079°57'0 0.0
2018-Mar-30 22:26N 09°22' W 079°57'0 0.0
2018-Mar-30 21:59N 09°22' W 079°57'0 0.0
2018-Mar-30 21:29N 09°22' W 079°57'0 0.0
2018-Mar-30 20:59N 09°22' W 079°57'0 0.0
2018-Mar-30 20:29N 09°22' W 079°57'0 0.0
2018-Mar-30 19:59N 09°22' W 079°57'0 0.0
2018-Mar-30 19:29N 09°22' W 079°57'0 0.0
2018-Mar-30 18:59N 09°22' W 079°57'0 0.0
2018-Mar-30 18:29N 09°22' W 079°57'0 0.0
2018-Mar-30 17:59N 09°22' W 079°57'0 0.0
2018-Mar-30 17:29N 09°22' W 079°57'0 0.0
2018-Mar-30 16:53N 09°22' W 079°57'0 0.0
2018-Mar-30 16:29N 09°22' W 079°57'0 0.0
2018-Mar-30 15:59N 09°22' W 079°57'0 0.0
2018-Mar-30 15:29N 09°22' W 079°57'0 0.0
2018-Mar-30 14:59N 09°22' W 079°57'0 0.0
2018-Mar-30 14:31N 09°22' W 079°57'0 0.0
2018-Mar-30 13:59N 09°22' W 079°57'0 0.1
2018-Mar-30 13:29N 09°22' W 079°57'0 0.1
2018-Mar-30 12:59N 09°22' W 079°57'0 0.0
2018-Mar-30 12:29N 09°22' W 079°57'0 0.0
2018-Mar-30 11:59N 09°22' W 079°57'0 0.0
2018-Mar-30 11:26N 09°22' W 079°57'0 0.0
2018-Mar-30 10:59N 09°22' W 079°57'0 0.0
2018-Mar-30 10:20N 09°22' W 079°57'0 0.0
2018-Mar-30 09:56N 09°22' W 079°57'0 0.0
2018-Mar-30 09:29N 09°22' W 079°57'0 0.0
2018-Mar-30 08:59N 09°22' W 079°57'0 0.0
2018-Mar-30 08:29N 09°22' W 079°57'0 0.0
2018-Mar-30 07:59N 09°22' W 079°57'0 0.0
2018-Mar-30 07:29N 09°22' W 079°57'0 0.0
2018-Mar-30 06:59N 09°22' W 079°57'0 0.0
2018-Mar-30 06:29N 09°22' W 079°57'0 0.0
2018-Mar-30 05:59N 09°22' W 079°57'0 0.0
2018-Mar-30 05:29N 09°22' W 079°57'0 0.0
2018-Mar-30 04:56N 09°22' W 079°57'0 0.0
2018-Mar-30 04:29N 09°22' W 079°57'0 0.0
2018-Mar-30 03:59N 09°22' W 079°57'0 0.0
2018-Mar-30 03:29N 09°22' W 079°57'0 0.0
2018-Mar-30 02:59N 09°22' W 079°57'0 0.0
2018-Mar-30 02:29N 09°22' W 079°57'0 0.0
2018-Mar-30 01:59N 09°22' W 079°57'0 0.0
2018-Mar-30 01:23N 09°22' W 079°57'0 0.0
2018-Mar-30 00:55N 09°22' W 079°57'0 0.0
2018-Mar-30 00:28N 09°22' W 079°57'0 0.0
2018-Mar-29 23:58N 09°22' W 079°57'0 0.0
2018-Mar-29 23:28N 09°22' W 079°57'0 0.0
2018-Mar-29 22:58N 09°22' W 079°57'0 0.0
2018-Mar-29 22:28N 09°22' W 079°57'0 0.0
2018-Mar-29 21:58N 09°22' W 079°57'0 0.0
2018-Mar-29 21:30N 09°22' W 079°57'0 0.0
2018-Mar-29 20:57N 09°22' W 079°57'0 0.0
2018-Mar-29 20:30N 09°22' W 079°57'0 0.0
2018-Mar-29 20:00N 09°22' W 079°57'0 0.0
2018-Mar-29 19:30N 09°22' W 079°57'0 0.0
2018-Mar-29 19:00N 09°22' W 079°57'0 0.0
2018-Mar-29 18:30N 09°22' W 079°57'0 0.0
2018-Mar-29 18:00N 09°22' W 079°57'0 0.0
2018-Mar-29 17:30N 09°22' W 079°57'0 0.0
2018-Mar-29 17:00N 09°22' W 079°57'0 0.0
2018-Mar-29 16:24N 09°22' W 079°57'0 0.0
2018-Mar-29 16:00N 09°22' W 079°57'0 0.0
2018-Mar-29 15:30N 09°22' W 079°57'0 0.0
2018-Mar-29 15:00N 09°22' W 079°57'0 0.0
2018-Mar-29 14:30N 09°22' W 079°57'0 0.0
2018-Mar-29 14:00N 09°22' W 079°57'0 0.0
2018-Mar-29 13:30N 09°22' W 079°57'0 0.0
2018-Mar-29 13:00N 09°22' W 079°57'0 0.0
2018-Mar-29 12:30N 09°22' W 079°57'0 0.0
2018-Mar-29 11:51N 09°22' W 079°57'0 0.0
2018-Mar-29 11:30N 09°22' W 079°57'0 0.0
2018-Mar-29 10:57N 09°22' W 079°57'0 0.0
2018-Mar-29 10:30N 09°22' W 079°57'0 0.0
2018-Mar-29 10:00N 09°22' W 079°57'0 0.0
2018-Mar-29 09:30N 09°22' W 079°57'0 0.0
2018-Mar-29 09:00N 09°22' W 079°57'0 0.0
2018-Mar-29 08:30N 09°22' W 079°57'0 0.0
2018-Mar-29 08:00N 09°22' W 079°57'0 0.0
2018-Mar-29 07:30N 09°22' W 079°57'0 0.0
2018-Mar-29 06:54N 09°22' W 079°57'0 0.0
2018-Mar-29 06:30N 09°22' W 079°57'0 0.0
2018-Mar-29 06:00N 09°22' W 079°57'0 0.0
2018-Mar-29 05:30N 09°22' W 079°57'0 0.0
2018-Mar-29 05:00N 09°22' W 079°57'0 0.0
2018-Mar-29 04:30N 09°22' W 079°57'0 0.0
2018-Mar-29 04:00N 09°22' W 079°57'0 0.0
2018-Mar-29 03:30N 09°22' W 079°57'0 0.0
2018-Mar-29 03:00N 09°22' W 079°57'0 0.0
2018-Mar-29 02:30N 09°22' W 079°57'0 0.0
2018-Mar-29 02:00N 09°22' W 079°57'0 0.0
2018-Mar-29 01:30N 09°22' W 079°57'0 0.0
2018-Mar-29 01:00N 09°22' W 079°57'0 0.0
2018-Mar-29 00:29N 09°22' W 079°57'0 0.0
2018-Mar-28 23:59N 09°22' W 079°57'0 0.0
2018-Mar-28 23:26N 09°22' W 079°57'0 0.0
2018-Mar-28 22:59N 09°22' W 079°57'0 0.0
2018-Mar-28 22:29N 09°22' W 079°57'0 0.0
2018-Mar-28 21:59N 09°22' W 079°57'0 0.0
2018-Mar-28 21:29N 09°22' W 079°57'0 0.0
2018-Mar-28 20:59N 09°22' W 079°57'0 0.0
2018-Mar-28 20:29N 09°22' W 079°57'0 0.0
2018-Mar-28 19:56N 09°22' W 079°57'0 0.0
2018-Mar-28 19:29N 09°22' W 079°57'0 0.0
2018-Mar-28 19:00N 09°22' W 079°57'0 0.0
2018-Mar-28 18:30N 09°22' W 079°57'0 0.0
2018-Mar-28 18:00N 09°22' W 079°57'0 0.0
2018-Mar-28 17:30N 09°22' W 079°57'0 0.0
2018-Mar-28 17:00N 09°22' W 079°57'0 0.0
2018-Mar-28 16:30N 09°22' W 079°57'0 0.0
2018-Mar-28 16:00N 09°22' W 079°57'0 0.0
2018-Mar-28 15:30N 09°22' W 079°57'0 0.0
2018-Mar-28 15:00N 09°22' W 079°57'0 0.0
2018-Mar-28 14:30N 09°22' W 079°57'0 0.0
2018-Mar-28 14:00N 09°22' W 079°57'0 0.0
2018-Mar-28 13:30N 09°22' W 079°57'0 0.0
2018-Mar-28 13:00N 09°22' W 079°57'0 0.0
2018-Mar-28 12:27N 09°22' W 079°57'0 0.0
2018-Mar-28 12:00N 09°22' W 079°57'0 0.0
2018-Mar-28 11:30N 09°22' W 079°57'0 0.0
2018-Mar-28 11:00N 09°22' W 079°57'0 0.0
2018-Mar-28 10:30N 09°22' W 079°57'0 0.0
2018-Mar-28 10:00N 09°22' W 079°57'0 0.0
2018-Mar-28 09:30N 09°22' W 079°57'0 0.0
2018-Mar-28 09:00N 09°22' W 079°57'0 0.0
2018-Mar-28 08:30N 09°22' W 079°57'0 0.0
2018-Mar-28 08:00N 09°22' W 079°57'0 0.0
2018-Mar-28 07:30N 09°22' W 079°57'0 0.0
2018-Mar-28 07:00N 09°22' W 079°57'0 0.0
2018-Mar-28 06:30N 09°22' W 079°57'0 0.0
2018-Mar-28 06:00N 09°22' W 079°57'0 0.0
2018-Mar-28 05:30N 09°22' W 079°57'0 0.0
2018-Mar-28 05:00N 09°22' W 079°57'0 0.0
2018-Mar-28 04:30N 09°22' W 079°57'0 0.0
2018-Mar-28 04:00N 09°22' W 079°57'0 0.0
2018-Mar-28 03:30N 09°22' W 079°57'0 0.0
2018-Mar-28 03:00N 09°22' W 079°57'0 0.0
2018-Mar-28 02:30N 09°22' W 079°57'0 0.0
2018-Mar-28 02:00N 09°22' W 079°57'0 0.0
2018-Mar-28 01:27N 09°22' W 079°57'0 0.0
2018-Mar-28 00:54N 09°22' W 079°57'0 0.0
2018-Mar-28 00:30N 09°22' W 079°57'0 0.0
2018-Mar-27 23:57N 09°22' W 079°57'0 0.0
2018-Mar-27 23:30N 09°22' W 079°57'0 0.0
2018-Mar-27 23:00N 09°22' W 079°57'0 0.0
2018-Mar-27 22:30N 09°22' W 079°57'0 0.0
2018-Mar-27 22:00N 09°22' W 079°57'0 0.0
2018-Mar-27 21:29N 09°22' W 079°57'0 0.0
2018-Mar-27 20:59N 09°22' W 079°57'0 0.0
2018-Mar-27 18:20N 09°22' W 079°57'0 0.0
2018-Mar-27 17:59N 09°22' W 079°57'0 0.0
2018-Mar-27 17:29N 09°22' W 079°57'0 0.0
2018-Mar-27 16:59N 09°22' W 079°57'0 0.0
2018-Mar-27 16:29N 09°22' W 079°57'0 0.0
2018-Mar-27 15:59N 09°22' W 079°57'0 0.0
2018-Mar-27 15:29N 09°22' W 079°57'0 0.0
2018-Mar-27 14:59N 09°22' W 079°57'0 0.0
2018-Mar-27 14:29N 09°22' W 079°57'0 0.0
2018-Mar-27 13:59N 09°22' W 079°57'0 0.0
2018-Mar-27 13:29N 09°22' W 079°57'0 0.0
2018-Mar-27 12:56N 09°22' W 079°57'0 0.0
2018-Mar-27 12:29N 09°22' W 079°57'0 0.0
2018-Mar-27 11:56N 09°22' W 079°57'0 0.0
2018-Mar-27 11:26N 09°22' W 079°57'0 0.0
2018-Mar-27 10:59N 09°22' W 079°57'0 0.0
2018-Mar-27 10:29N 09°22' W 079°57'0 0.0
2018-Mar-27 09:53N 09°22' W 079°57'0 0.0
2018-Mar-27 09:23N 09°22' W 079°57'0 0.0
2018-Mar-27 08:59N 09°22' W 079°57'0 0.0
2018-Mar-27 08:29N 09°22' W 079°57'0 0.0
2018-Mar-27 07:59N 09°22' W 079°57'0 0.0
2018-Mar-27 07:29N 09°22' W 079°57'0 0.0
2018-Mar-27 06:58N 09°22' W 079°57'0 0.0
2018-Mar-27 06:28N 09°22' W 079°57'0 0.0
2018-Mar-27 05:58N 09°22' W 079°57'0 0.0
2018-Mar-27 05:30N 09°22' W 079°57'0 0.0
2018-Mar-27 05:00N 09°22' W 079°57'0 0.0
2018-Mar-27 04:30N 09°22' W 079°57'0 0.0
2018-Mar-27 04:00N 09°22' W 079°57'0 0.0
2018-Mar-27 03:27N 09°22' W 079°57'0 0.0
2018-Mar-27 03:00N 09°22' W 079°57'0 0.0
2018-Mar-27 02:30N 09°22' W 079°57'0 0.0
2018-Mar-27 02:00N 09°22' W 079°57'0 0.0
2018-Mar-27 01:30N 09°22' W 079°57'0 0.0
2018-Mar-27 01:00N 09°22' W 079°57'0 0.0
2018-Mar-27 00:30N 09°22' W 079°57'0 0.0
2018-Mar-27 00:00N 09°22' W 079°57'0 0.0
2018-Mar-26 23:30N 09°22' W 079°57'0 0.0
2018-Mar-26 23:00N 09°22' W 079°57'0 0.0
2018-Mar-26 22:30N 09°22' W 079°57'0 0.0
2018-Mar-26 22:00N 09°22' W 079°57'0 0.0
2018-Mar-26 21:30N 09°22' W 079°57'0 0.0
2018-Mar-26 21:00N 09°22' W 079°57'0 0.0
2018-Mar-26 20:30N 09°22' W 079°57'0 0.0
2018-Mar-26 20:00N 09°22' W 079°57'0 0.0
2018-Mar-26 19:30N 09°22' W 079°57'0 0.0
2018-Mar-26 19:00N 09°22' W 079°57'0 0.0
2018-Mar-26 18:30N 09°22' W 079°57'0 0.0
2018-Mar-26 18:00N 09°22' W 079°57'  
Track history (hours):
 
Tides and Currents Weather Stations Pressure Air Temp Water Temp Dewpoint Dewpoint Depression Visibility Wind Speed Wind Dir Waves Ship Positions

Neorion

Last reported at 2018-Mar-31 23:53 UTC. Time now 2018-Jun-20 19:19 UTC.
Position N 09°16' W 079°55'.
Warning: this ship's position is months out of date.

Length 28 m.

Type: Sailing vessel. MMSI: 235102003.

Date/timePositionNaut miles runAvg speedWind from/ knotsBaromVisibWave heightAir tempDewpointWater temp
2018-Mar-31 23:53N 09°16' W 079°55'1 1.0
2018-Mar-31 22:45N 09°17' W 079°55'0 0.2
2018-Mar-31 22:04N 09°17' W 079°55'0 1.2
2018-Mar-31 21:58N 09°17' W 079°55'1 2.6
2018-Mar-31 21:28N 09°18' W 079°55'2 4.9
2018-Mar-31 20:58N 09°21' W 079°55'0 0.1
2018-Mar-31 20:30N 09°21' W 079°55'3 5.1
2018-Mar-31 19:59N 09°22' W 079°57'0 0.3
2018-Mar-31 19:26N 09°22' W 079°57'0 0.0
2018-Mar-31 18:59N 09°22' W 079°57'0 0.0
2018-Mar-31 18:29N 09°22' W 079°57'0 0.0
2018-Mar-31 17:59N 09°22' W 079°57'0 0.0
2018-Mar-31 17:29N 09°22' W 079°57'0 0.0
2018-Mar-31 16:56N 09°22' W 079°57'0 0.0
2018-Mar-31 16:29N 09°22' W 079°57'0 0.0
2018-Mar-31 15:59N 09°22' W 079°57'0 0.0
2018-Mar-31 15:29N 09°22' W 079°57'0 0.0
2018-Mar-31 14:59N 09°22' W 079°57'0 0.0
2018-Mar-31 14:29N 09°22' W 079°57'0 0.0
2018-Mar-31 13:59N 09°22' W 079°57'0 0.0
2018-Mar-31 13:29N 09°22' W 079°57'0 0.0
2018-Mar-31 12:59N 09°22' W 079°57'0 0.0
2018-Mar-31 12:27N 09°22' W 079°57'0 0.0
2018-Mar-31 11:59N 09°22' W 079°57'0 0.0
2018-Mar-31 11:26N 09°22' W 079°57'0 0.0
2018-Mar-31 10:59N 09°22' W 079°57'0 0.0
2018-Mar-31 10:29N 09°22' W 079°57'0 0.0
2018-Mar-31 09:59N 09°22' W 079°57'0 0.0
2018-Mar-31 09:26N 09°22' W 079°57'0 0.0
2018-Mar-31 08:59N 09°22' W 079°57'0 0.0
2018-Mar-31 08:29N 09°22' W 079°57'0 0.0
2018-Mar-31 07:59N 09°22' W 079°57'0 0.0
2018-Mar-31 07:30N 09°22' W 079°57'0 0.0
2018-Mar-31 07:00N 09°22' W 079°57'0 0.0
2018-Mar-31 06:29N 09°22' W 079°57'0 0.0
2018-Mar-31 05:56N 09°22' W 079°57'0 0.0
2018-Mar-31 05:26N 09°22' W 079°57'0 0.0
2018-Mar-31 04:56N 09°22' W 079°57'0 0.0
2018-Mar-31 04:29N 09°22' W 079°57'0 0.0
2018-Mar-31 03:59N 09°22' W 079°57'0 0.0
2018-Mar-31 03:29N 09°22' W 079°57'0 0.0
2018-Mar-31 02:59N 09°22' W 079°57'0 0.0
2018-Mar-31 02:29N 09°22' W 079°57'0 0.0
2018-Mar-31 01:59N 09°22' W 079°57'0 0.0
2018-Mar-31 00:05N 09°22' W 079°57'0 0.0
2018-Mar-30 23:59N 09°22' W 079°57'0 0.0
2018-Mar-30 23:29N 09°22' W 079°57'0 0.0
2018-Mar-30 22:56N 09°22' W 079°57'0 0.0
2018-Mar-30 22:26N 09°22' W 079°57'0 0.0
2018-Mar-30 21:59N 09°22' W 079°57'0 0.0
2018-Mar-30 21:29N 09°22' W 079°57'0 0.0
2018-Mar-30 20:59N 09°22' W 079°57'0 0.0
2018-Mar-30 20:29N 09°22' W 079°57'0 0.0
2018-Mar-30 19:59N 09°22' W 079°57'0 0.0
2018-Mar-30 19:29N 09°22' W 079°57'0 0.0
2018-Mar-30 18:59N 09°22' W 079°57'0 0.0
2018-Mar-30 18:29N 09°22' W 079°57'0 0.0
2018-Mar-30 17:59N 09°22' W 079°57'0 0.0
2018-Mar-30 17:29N 09°22' W 079°57'0 0.0
2018-Mar-30 16:53N 09°22' W 079°57'0 0.0
2018-Mar-30 16:29N 09°22' W 079°57'0 0.0
2018-Mar-30 15:59N 09°22' W 079°57'0 0.0
2018-Mar-30 15:29N 09°22' W 079°57'0 0.0
2018-Mar-30 14:59N 09°22' W 079°57'0 0.0
2018-Mar-30 14:31N 09°22' W 079°57'0 0.0
2018-Mar-30 13:59N 09°22' W 079°57'0 0.1
2018-Mar-30 13:29N 09°22' W 079°57'0 0.1
2018-Mar-30 12:59N 09°22' W 079°57'0 0.0
2018-Mar-30 12:29N 09°22' W 079°57'0 0.0
2018-Mar-30 11:59N 09°22' W 079°57'0 0.0
2018-Mar-30 11:26N 09°22' W 079°57'0 0.0
2018-Mar-30 10:59N 09°22' W 079°57'0 0.0
2018-Mar-30 10:20N 09°22' W 079°57'0 0.0
2018-Mar-30 09:56N 09°22' W 079°57'0 0.0
2018-Mar-30 09:29N 09°22' W 079°57'0 0.0
2018-Mar-30 08:59N 09°22' W 079°57'0 0.0
2018-Mar-30 08:29N 09°22' W 079°57'0 0.0
2018-Mar-30 07:59N 09°22' W 079°57'0 0.0
2018-Mar-30 07:29N 09°22' W 079°57'0 0.0
2018-Mar-30 06:59N 09°22' W 079°57'0 0.0
2018-Mar-30 06:29N 09°22' W 079°57'0 0.0
2018-Mar-30 05:59N 09°22' W 079°57'0 0.0
2018-Mar-30 05:29N 09°22' W 079°57'0 0.0
2018-Mar-30 04:56N 09°22' W 079°57'0 0.0
2018-Mar-30 04:29N 09°22' W 079°57'0 0.0
2018-Mar-30 03:59N 09°22' W 079°57'0 0.0
2018-Mar-30 03:29N 09°22' W 079°57'0 0.0
2018-Mar-30 02:59N 09°22' W 079°57'0 0.0
2018-Mar-30 02:29N 09°22' W 079°57'0 0.0
2018-Mar-30 01:59N 09°22' W 079°57'0 0.0
2018-Mar-30 01:23N 09°22' W 079°57'0 0.0
2018-Mar-30 00:55N 09°22' W 079°57'0 0.0
2018-Mar-30 00:28N 09°22' W 079°57'0 0.0
2018-Mar-29 23:58N 09°22' W 079°57'0 0.0
2018-Mar-29 23:28N 09°22' W 079°57'0 0.0
2018-Mar-29 22:58N 09°22' W 079°57'0 0.0
2018-Mar-29 22:28N 09°22' W 079°57'0 0.0
2018-Mar-29 21:58N 09°22' W 079°57'0 0.0
2018-Mar-29 21:30N 09°22' W 079°57'0 0.0
2018-Mar-29 20:57N 09°22' W 079°57'0 0.0
2018-Mar-29 20:30N 09°22' W 079°57'0 0.0
2018-Mar-29 20:00N 09°22' W 079°57'0 0.0
2018-Mar-29 19:30N 09°22' W 079°57'0 0.0
2018-Mar-29 19:00N 09°22' W 079°57'0 0.0
2018-Mar-29 18:30N 09°22' W 079°57'0 0.0
2018-Mar-29 18:00N 09°22' W 079°57'0 0.0
2018-Mar-29 17:30N 09°22' W 079°57'0 0.0
2018-Mar-29 17:00N 09°22' W 079°57'0 0.0
2018-Mar-29 16:24N 09°22' W 079°57'0 0.0
2018-Mar-29 16:00N 09°22' W 079°57'0 0.0
2018-Mar-29 15:30N 09°22' W 079°57'0 0.0
2018-Mar-29 15:00N 09°22' W 079°57'0 0.0
2018-Mar-29 14:30N 09°22' W 079°57'0 0.0
2018-Mar-29 14:00N 09°22' W 079°57'0 0.0
2018-Mar-29 13:30N 09°22' W 079°57'0 0.0
2018-Mar-29 13:00N 09°22' W 079°57'0 0.0
2018-Mar-29 12:30N 09°22' W 079°57'0 0.0
2018-Mar-29 11:51N 09°22' W 079°57'0 0.0
2018-Mar-29 11:30N 09°22' W 079°57'0 0.0
2018-Mar-29 10:57N 09°22' W 079°57'0 0.0
2018-Mar-29 10:30N 09°22' W 079°57'0 0.0
2018-Mar-29 10:00N 09°22' W 079°57'0 0.0
2018-Mar-29 09:30N 09°22' W 079°57'0 0.0
2018-Mar-29 09:00N 09°22' W 079°57'0 0.0
2018-Mar-29 08:30N 09°22' W 079°57'0 0.0
2018-Mar-29 08:00N 09°22' W 079°57'0 0.0
2018-Mar-29 07:30N 09°22' W 079°57'0 0.0
2018-Mar-29 06:54N 09°22' W 079°57'0 0.0
2018-Mar-29 06:30N 09°22' W 079°57'0 0.0
2018-Mar-29 06:00N 09°22' W 079°57'0 0.0
2018-Mar-29 05:30N 09°22' W 079°57'0 0.0
2018-Mar-29 05:00N 09°22' W 079°57'0 0.0
2018-Mar-29 04:30N 09°22' W 079°57'0 0.0
2018-Mar-29 04:00N 09°22' W 079°57'0 0.0
2018-Mar-29 03:30N 09°22' W 079°57'0 0.0
2018-Mar-29 03:00N 09°22' W 079°57'0 0.0
2018-Mar-29 02:30N 09°22' W 079°57'0 0.0
2018-Mar-29 02:00N 09°22' W 079°57'0 0.0
2018-Mar-29 01:30N 09°22' W 079°57'0 0.0
2018-Mar-29 01:00N 09°22' W 079°57'0 0.0
2018-Mar-29 00:29N 09°22' W 079°57'0 0.0
2018-Mar-28 23:59N 09°22' W 079°57'0 0.0
2018-Mar-28 23:26N 09°22' W 079°57'0 0.0
2018-Mar-28 22:59N 09°22' W 079°57'0 0.0
2018-Mar-28 22:29N 09°22' W 079°57'0 0.0
2018-Mar-28 21:59N 09°22' W 079°57'0 0.0
2018-Mar-28 21:29N 09°22' W 079°57'0 0.0
2018-Mar-28 20:59N 09°22' W 079°57'0 0.0
2018-Mar-28 20:29N 09°22' W 079°57'0 0.0
2018-Mar-28 19:56N 09°22' W 079°57'0 0.0
2018-Mar-28 19:29N 09°22' W 079°57'0 0.0
2018-Mar-28 19:00N 09°22' W 079°57'0 0.0
2018-Mar-28 18:30N 09°22' W 079°57'0 0.0
2018-Mar-28 18:00N 09°22' W 079°57'0 0.0
2018-Mar-28 17:30N 09°22' W 079°57'0 0.0
2018-Mar-28 17:00N 09°22' W 079°57'0 0.0
2018-Mar-28 16:30N 09°22' W 079°57'0 0.0
2018-Mar-28 16:00N 09°22' W 079°57'0 0.0
2018-Mar-28 15:30N 09°22' W 079°57'0 0.0
2018-Mar-28 15:00N 09°22' W 079°57'0 0.0
2018-Mar-28 14:30N 09°22' W 079°57'0 0.0
2018-Mar-28 14:00N 09°22' W 079°57'0 0.0
2018-Mar-28 13:30N 09°22' W 079°57'0 0.0
2018-Mar-28 13:00N 09°22' W 079°57'0 0.0
2018-Mar-28 12:27N 09°22' W 079°57'0 0.0
2018-Mar-28 12:00N 09°22' W 079°57'0 0.0
2018-Mar-28 11:30N 09°22' W 079°57'0 0.0
2018-Mar-28 11:00N 09°22' W 079°57'0 0.0
2018-Mar-28 10:30N 09°22' W 079°57'0 0.0
2018-Mar-28 10:00N 09°22' W 079°57'0 0.0
2018-Mar-28 09:30N 09°22' W 079°57'0 0.0
2018-Mar-28 09:00N 09°22' W 079°57'0 0.0
2018-Mar-28 08:30N 09°22' W 079°57'0 0.0
2018-Mar-28 08:00N 09°22' W 079°57'0 0.0
2018-Mar-28 07:30N 09°22' W 079°57'0 0.0
2018-Mar-28 07:00N 09°22' W 079°57'0 0.0
2018-Mar-28 06:30N 09°22' W 079°57'0 0.0
2018-Mar-28 06:00N 09°22' W 079°57'0 0.0
2018-Mar-28 05:30N 09°22' W 079°57'0 0.0
2018-Mar-28 05:00N 09°22' W 079°57'0 0.0
2018-Mar-28 04:30N 09°22' W 079°57'0 0.0
2018-Mar-28 04:00N 09°22' W 079°57'0 0.0
2018-Mar-28 03:30N 09°22' W 079°57'0 0.0
2018-Mar-28 03:00N 09°22' W 079°57'0 0.0
2018-Mar-28 02:30N 09°22' W 079°57'0 0.0
2018-Mar-28 02:00N 09°22' W 079°57'0 0.0
2018-Mar-28 01:27N 09°22' W 079°57'0 0.0
2018-Mar-28 00:54N 09°22' W 079°57'0 0.0
2018-Mar-28 00:30N 09°22' W 079°57'0 0.0
2018-Mar-27 23:57N 09°22' W 079°57'0 0.0
2018-Mar-27 23:30N 09°22' W 079°57'0 0.0
2018-Mar-27 23:00N 09°22' W 079°57'0 0.0
2018-Mar-27 22:30N 09°22' W 079°57'0 0.0
2018-Mar-27 22:00N 09°22' W 079°57'0 0.0
2018-Mar-27 21:29N 09°22' W 079°57'0 0.0
2018-Mar-27 20:59N 09°22' W 079°57'0 0.0
2018-Mar-27 18:20N 09°22' W 079°57'0 0.0
2018-Mar-27 17:59N 09°22' W 079°57'0 0.0
2018-Mar-27 17:29N 09°22' W 079°57'0 0.0
2018-Mar-27 16:59N 09°22' W 079°57'0 0.0
2018-Mar-27 16:29N 09°22' W 079°57'0 0.0
2018-Mar-27 15:59N 09°22' W 079°57'0 0.0
2018-Mar-27 15:29N 09°22' W 079°57'0 0.0
2018-Mar-27 14:59N 09°22' W 079°57'0 0.0
2018-Mar-27 14:29N 09°22' W 079°57'0 0.0
2018-Mar-27 13:59N 09°22' W 079°57'0 0.0
2018-Mar-27 13:29N 09°22' W 079°57'0 0.0
2018-Mar-27 12:56N 09°22' W 079°57'0 0.0
2018-Mar-27 12:29N 09°22' W 079°57'0 0.0
2018-Mar-27 11:56N 09°22' W 079°57'0 0.0
2018-Mar-27 11:26N 09°22' W 079°57'0 0.0
2018-Mar-27 10:59N 09°22' W 079°57'0 0.0
2018-Mar-27 10:29N 09°22' W 079°57'0 0.0
2018-Mar-27 09:53N 09°22' W 079°57'0 0.0
2018-Mar-27 09:23N 09°22' W 079°57'0 0.0
2018-Mar-27 08:59N 09°22' W 079°57'0 0.0
2018-Mar-27 08:29N 09°22' W 079°57'0 0.0
2018-Mar-27 07:59N 09°22' W 079°57'0 0.0
2018-Mar-27 07:29N 09°22' W 079°57'0 0.0
2018-Mar-27 06:58N 09°22' W 079°57'0 0.0
2018-Mar-27 06:28N 09°22' W 079°57'0 0.0
2018-Mar-27 05:58N 09°22' W 079°57'0 0.0
2018-Mar-27 05:30N 09°22' W 079°57'0 0.0
2018-Mar-27 05:00N 09°22' W 079°57'0 0.0
2018-Mar-27 04:30N 09°22' W 079°57'0 0.0
2018-Mar-27 04:00N 09°22' W 079°57'0 0.0
2018-Mar-27 03:27N 09°22' W 079°57'0 0.0
2018-Mar-27 03:00N 09°22' W 079°57'0 0.0
2018-Mar-27 02:30N 09°22' W 079°57'0 0.0
2018-Mar-27 02:00N 09°22' W 079°57'0 0.0
2018-Mar-27 01:30N 09°22' W 079°57'0 0.0
2018-Mar-27 01:00N 09°22' W 079°57'0 0.0
2018-Mar-27 00:30N 09°22' W 079°57'0 0.0
2018-Mar-27 00:00N 09°22' W 079°57'0 0.0
2018-Mar-26 23:30N 09°22' W 079°57'0 0.0
2018-Mar-26 23:00N 09°22' W 079°57'0 0.0
2018-Mar-26 22:30N 09°22' W 079°57'0 0.0
2018-Mar-26 22:00N 09°22' W 079°57'0 0.0
2018-Mar-26 21:30N 09°22' W 079°57'0 0.0
2018-Mar-26 21:00N 09°22' W 079°57'0 0.0
2018-Mar-26 20:30N 09°22' W 079°57'0 0.0
2018-Mar-26 20:00N 09°22' W 079°57'0 0.0
2018-Mar-26 19:30N 09°22' W 079°57'0 0.0
2018-Mar-26 19:00N 09°22' W 079°57'0 0.0
2018-Mar-26 18:30N 09°22' W 079°57'0 0.0
2018-Mar-26 18:00N 09°22' W 079°57'  

Dump ship's entire track history